sensor_id;sensor_type;location;lat;lon;timestamp;P1;durP1;ratioP1;P2;durP2;ratioP2
27201;SDS011;14717;46.924;15.474;2023-01-15T00:00:14;15.68;;;6.57;;
27201;SDS011;14717;46.924;15.474;2023-01-15T00:02:40;20.02;;;7.28;;
27201;SDS011;14717;46.924;15.474;2023-01-15T00:05:05;19.85;;;8.20;;
27201;SDS011;14717;46.924;15.474;2023-01-15T00:07:31;14.60;;;7.22;;
27201;SDS011;14717;46.924;15.474;2023-01-15T00:09:57;16.90;;;7.10;;
27201;SDS011;14717;46.924;15.474;2023-01-15T00:12:22;19.23;;;8.32;;
27201;SDS011;14717;46.924;15.474;2023-01-15T00:14:47;21.40;;;9.20;;
27201;SDS011;14717;46.924;15.474;2023-01-15T00:17:13;22.67;;;9.45;;
27201;SDS011;14717;46.924;15.474;2023-01-15T00:19:38;22.48;;;9.68;;
27201;SDS011;14717;46.924;15.474;2023-01-15T00:22:03;28.05;;;11.90;;
27201;SDS011;14717;46.924;15.474;2023-01-15T00:24:29;27.58;;;13.38;;
27201;SDS011;14717;46.924;15.474;2023-01-15T00:27:13;33.70;;;14.45;;
27201;SDS011;14717;46.924;15.474;2023-01-15T00:29:57;29.77;;;13.07;;
27201;SDS011;14717;46.924;15.474;2023-01-15T00:32:25;33.28;;;12.55;;
27201;SDS011;14717;46.924;15.474;2023-01-15T00:34:53;27.75;;;12.48;;
27201;SDS011;14717;46.924;15.474;2023-01-15T00:37:19;28.50;;;13.60;;
27201;SDS011;14717;46.924;15.474;2023-01-15T00:39:44;23.90;;;11.80;;
27201;SDS011;14717;46.924;15.474;2023-01-15T00:42:12;21.55;;;9.88;;
27201;SDS011;14717;46.924;15.474;2023-01-15T00:44:37;20.55;;;9.88;;
27201;SDS011;14717;46.924;15.474;2023-01-15T00:47:03;20.60;;;9.15;;
27201;SDS011;14717;46.924;15.474;2023-01-15T00:49:28;22.48;;;10.52;;
27201;SDS011;14717;46.924;15.474;2023-01-15T00:51:53;22.05;;;9.88;;
27201;SDS011;14717;46.924;15.474;2023-01-15T00:54:19;24.30;;;9.75;;
27201;SDS011;14717;46.924;15.474;2023-01-15T00:56:44;22.83;;;10.35;;
27201;SDS011;14717;46.924;15.474;2023-01-15T00:59:10;21.25;;;9.68;;
27201;SDS011;14717;46.924;15.474;2023-01-15T01:01:35;24.67;;;9.40;;
27201;SDS011;14717;46.924;15.474;2023-01-15T01:04:01;22.55;;;9.75;;
27201;SDS011;14717;46.924;15.474;2023-01-15T01:06:26;23.83;;;9.57;;
27201;SDS011;14717;46.924;15.474;2023-01-15T01:08:52;22.67;;;9.90;;
27201;SDS011;14717;46.924;15.474;2023-01-15T01:11:19;19.95;;;9.30;;
27201;SDS011;14717;46.924;15.474;2023-01-15T01:13:47;25.55;;;10.23;;
27201;SDS011;14717;46.924;15.474;2023-01-15T01:18:54;30.73;;;10.25;;
27201;SDS011;14717;46.924;15.474;2023-01-15T01:21:22;21.33;;;9.65;;
27201;SDS011;14717;46.924;15.474;2023-01-15T01:23:48;23.65;;;9.77;;
27201;SDS011;14717;46.924;15.474;2023-01-15T01:26:13;18.30;;;9.50;;
27201;SDS011;14717;46.924;15.474;2023-01-15T01:28:39;16.75;;;8.95;;
27201;SDS011;14717;46.924;15.474;2023-01-15T01:31:05;20.27;;;9.00;;
27201;SDS011;14717;46.924;15.474;2023-01-15T01:33:32;19.00;;;9.13;;
27201;SDS011;14717;46.924;15.474;2023-01-15T01:35:58;19.45;;;9.35;;
27201;SDS011;14717;46.924;15.474;2023-01-15T01:38:24;20.92;;;10.07;;
27201;SDS011;14717;46.924;15.474;2023-01-15T01:40:49;19.85;;;9.15;;
27201;SDS011;14717;46.924;15.474;2023-01-15T01:43:22;22.58;;;9.82;;
27201;SDS011;14717;46.924;15.474;2023-01-15T01:45:49;20.05;;;8.95;;
27201;SDS011;14717;46.924;15.474;2023-01-15T01:48:14;20.33;;;9.07;;
27201;SDS011;14717;46.924;15.474;2023-01-15T01:50:43;23.10;;;9.18;;
27201;SDS011;14717;46.924;15.474;2023-01-15T01:53:11;19.67;;;8.85;;
27201;SDS011;14717;46.924;15.474;2023-01-15T01:55:41;17.77;;;7.97;;
27201;SDS011;14717;46.924;15.474;2023-01-15T01:58:07;16.20;;;8.32;;
27201;SDS011;14717;46.924;15.474;2023-01-15T02:00:37;14.70;;;8.43;;
27201;SDS011;14717;46.924;15.474;2023-01-15T02:03:04;16.35;;;7.50;;
27201;SDS011;14717;46.924;15.474;2023-01-15T02:05:32;17.77;;;8.50;;
27201;SDS011;14717;46.924;15.474;2023-01-15T02:08:02;18.70;;;8.20;;
27201;SDS011;14717;46.924;15.474;2023-01-15T02:10:29;20.13;;;8.32;;
27201;SDS011;14717;46.924;15.474;2023-01-15T02:12:57;17.67;;;7.60;;
27201;SDS011;14717;46.924;15.474;2023-01-15T02:15:29;16.42;;;7.78;;
27201;SDS011;14717;46.924;15.474;2023-01-15T02:18:04;18.70;;;7.88;;
27201;SDS011;14717;46.924;15.474;2023-01-15T02:20:38;18.27;;;7.85;;
27201;SDS011;14717;46.924;15.474;2023-01-15T02:26:05;14.38;;;7.05;;
27201;SDS011;14717;46.924;15.474;2023-01-15T02:28:56;15.60;;;7.55;;
27201;SDS011;14717;46.924;15.474;2023-01-15T02:31:28;16.70;;;6.95;;
27201;SDS011;14717;46.924;15.474;2023-01-15T02:34:01;17.48;;;8.52;;
27201;SDS011;14717;46.924;15.474;2023-01-15T02:36:38;13.63;;;7.43;;
27201;SDS011;14717;46.924;15.474;2023-01-15T02:39:09;17.85;;;7.88;;
27201;SDS011;14717;46.924;15.474;2023-01-15T02:41:42;15.25;;;8.18;;
27201;SDS011;14717;46.924;15.474;2023-01-15T02:44:11;18.05;;;9.07;;
27201;SDS011;14717;46.924;15.474;2023-01-15T02:46:41;18.13;;;7.47;;
27201;SDS011;14717;46.924;15.474;2023-01-15T02:49:08;15.30;;;7.65;;
27201;SDS011;14717;46.924;15.474;2023-01-15T02:51:40;13.77;;;7.28;;
27201;SDS011;14717;46.924;15.474;2023-01-15T02:54:12;18.73;;;7.97;;
27201;SDS011;14717;46.924;15.474;2023-01-15T02:56:41;16.52;;;7.45;;
27201;SDS011;14717;46.924;15.474;2023-01-15T02:59:17;15.82;;;7.82;;
27201;SDS011;14717;46.924;15.474;2023-01-15T03:01:49;15.98;;;8.80;;
27201;SDS011;14717;46.924;15.474;2023-01-15T03:04:24;16.15;;;7.70;;
27201;SDS011;14717;46.924;15.474;2023-01-15T03:09:33;19.50;;;8.40;;
27201;SDS011;14717;46.924;15.474;2023-01-15T03:14:37;15.93;;;8.00;;
27201;SDS011;14717;46.924;15.474;2023-01-15T03:17:06;12.98;;;7.95;;
27201;SDS011;14717;46.924;15.474;2023-01-15T03:19:40;15.90;;;8.38;;
27201;SDS011;14717;46.924;15.474;2023-01-15T03:22:16;20.00;;;8.32;;
27201;SDS011;14717;46.924;15.474;2023-01-15T03:24:59;15.70;;;8.55;;
27201;SDS011;14717;46.924;15.474;2023-01-15T03:27:28;21.65;;;9.50;;
27201;SDS011;14717;46.924;15.474;2023-01-15T03:29:59;17.65;;;8.13;;
27201;SDS011;14717;46.924;15.474;2023-01-15T03:32:29;16.73;;;8.25;;
27201;SDS011;14717;46.924;15.474;2023-01-15T03:34:55;18.58;;;8.13;;
27201;SDS011;14717;46.924;15.474;2023-01-15T03:37:23;17.45;;;8.65;;
27201;SDS011;14717;46.924;15.474;2023-01-15T03:39:50;18.17;;;8.73;;
27201;SDS011;14717;46.924;15.474;2023-01-15T03:45:38;16.70;;;8.43;;
27201;SDS011;14717;46.924;15.474;2023-01-15T03:48:26;17.85;;;8.57;;
27201;SDS011;14717;46.924;15.474;2023-01-15T03:56:14;19.15;;;8.63;;
27201;SDS011;14717;46.924;15.474;2023-01-15T03:59:09;18.27;;;8.48;;
27201;SDS011;14717;46.924;15.474;2023-01-15T04:01:35;18.48;;;8.15;;
27201;SDS011;14717;46.924;15.474;2023-01-15T04:04:03;20.77;;;9.18;;
27201;SDS011;14717;46.924;15.474;2023-01-15T04:06:29;19.23;;;8.30;;
27201;SDS011;14717;46.924;15.474;2023-01-15T04:08:58;18.02;;;8.20;;
27201;SDS011;14717;46.924;15.474;2023-01-15T04:11:25;20.58;;;8.50;;
27201;SDS011;14717;46.924;15.474;2023-01-15T04:13:51;19.23;;;8.43;;
27201;SDS011;14717;46.924;15.474;2023-01-15T04:16:18;18.95;;;8.48;;
27201;SDS011;14717;46.924;15.474;2023-01-15T04:18:49;18.17;;;7.45;;
27201;SDS011;14717;46.924;15.474;2023-01-15T04:21:14;15.07;;;7.47;;
27201;SDS011;14717;46.924;15.474;2023-01-15T04:23:39;17.40;;;8.25;;
27201;SDS011;14717;46.924;15.474;2023-01-15T04:26:05;17.83;;;8.00;;
27201;SDS011;14717;46.924;15.474;2023-01-15T04:28:31;15.50;;;8.10;;
27201;SDS011;14717;46.924;15.474;2023-01-15T04:30:57;17.23;;;7.78;;
27201;SDS011;14717;46.924;15.474;2023-01-15T04:33:23;17.33;;;7.45;;
27201;SDS011;14717;46.924;15.474;2023-01-15T04:35:49;18.42;;;8.45;;
27201;SDS011;14717;46.924;15.474;2023-01-15T04:38:14;20.17;;;8.25;;
27201;SDS011;14717;46.924;15.474;2023-01-15T04:40:42;16.05;;;7.38;;
27201;SDS011;14717;46.924;15.474;2023-01-15T04:43:26;16.95;;;7.57;;
27201;SDS011;14717;46.924;15.474;2023-01-15T04:46:10;16.98;;;7.43;;
27201;SDS011;14717;46.924;15.474;2023-01-15T04:48:37;13.43;;;7.38;;
27201;SDS011;14717;46.924;15.474;2023-01-15T04:51:03;18.65;;;8.32;;
27201;SDS011;14717;46.924;15.474;2023-01-15T04:53:30;16.83;;;7.50;;
27201;SDS011;14717;46.924;15.474;2023-01-15T04:55:59;18.70;;;7.80;;
27201;SDS011;14717;46.924;15.474;2023-01-15T04:58:26;15.77;;;7.68;;
27201;SDS011;14717;46.924;15.474;2023-01-15T05:00:51;17.40;;;8.32;;
27201;SDS011;14717;46.924;15.474;2023-01-15T05:03:16;19.25;;;7.78;;
27201;SDS011;14717;46.924;15.474;2023-01-15T05:05:42;16.52;;;8.40;;
27201;SDS011;14717;46.924;15.474;2023-01-15T05:08:07;17.00;;;8.02;;
27201;SDS011;14717;46.924;15.474;2023-01-15T05:10:32;18.80;;;8.52;;
27201;SDS011;14717;46.924;15.474;2023-01-15T05:12:58;14.50;;;7.68;;
27201;SDS011;14717;46.924;15.474;2023-01-15T05:15:23;15.15;;;7.68;;
27201;SDS011;14717;46.924;15.474;2023-01-15T05:17:48;15.93;;;7.72;;
27201;SDS011;14717;46.924;15.474;2023-01-15T05:20:14;16.15;;;8.02;;
27201;SDS011;14717;46.924;15.474;2023-01-15T05:22:39;16.27;;;7.82;;
27201;SDS011;14717;46.924;15.474;2023-01-15T05:25:05;14.18;;;7.25;;
27201;SDS011;14717;46.924;15.474;2023-01-15T05:27:30;16.55;;;6.93;;
27201;SDS011;14717;46.924;15.474;2023-01-15T05:29:56;14.65;;;7.20;;
27201;SDS011;14717;46.924;15.474;2023-01-15T05:32:21;140.07;;;50.97;;
27201;SDS011;14717;46.924;15.474;2023-01-15T05:34:46;247.20;;;85.40;;
27201;SDS011;14717;46.924;15.474;2023-01-15T05:37:12;148.82;;;50.22;;
27201;SDS011;14717;46.924;15.474;2023-01-15T05:39:37;125.97;;;45.00;;
27201;SDS011;14717;46.924;15.474;2023-01-15T05:42:02;33.85;;;13.40;;
27201;SDS011;14717;46.924;15.474;2023-01-15T05:44:28;32.70;;;13.15;;
27201;SDS011;14717;46.924;15.474;2023-01-15T05:46:56;23.05;;;9.00;;
27201;SDS011;14717;46.924;15.474;2023-01-15T05:49:23;19.23;;;7.47;;
27201;SDS011;14717;46.924;15.474;2023-01-15T05:51:51;17.92;;;7.03;;
27201;SDS011;14717;46.924;15.474;2023-01-15T05:54:18;18.83;;;7.85;;
27201;SDS011;14717;46.924;15.474;2023-01-15T05:56:45;17.10;;;7.88;;
27201;SDS011;14717;46.924;15.474;2023-01-15T05:59:12;13.15;;;6.47;;
27201;SDS011;14717;46.924;15.474;2023-01-15T06:01:39;15.05;;;7.18;;
27201;SDS011;14717;46.924;15.474;2023-01-15T06:04:05;16.23;;;7.13;;
27201;SDS011;14717;46.924;15.474;2023-01-15T06:06:32;15.88;;;7.13;;
27201;SDS011;14717;46.924;15.474;2023-01-15T06:08:59;15.68;;;7.75;;
27201;SDS011;14717;46.924;15.474;2023-01-15T06:11:25;15.73;;;7.75;;
27201;SDS011;14717;46.924;15.474;2023-01-15T06:13:50;18.27;;;7.40;;
27201;SDS011;14717;46.924;15.474;2023-01-15T06:16:16;14.45;;;7.00;;
27201;SDS011;14717;46.924;15.474;2023-01-15T06:18:42;16.30;;;6.57;;
27201;SDS011;14717;46.924;15.474;2023-01-15T06:21:09;16.23;;;6.82;;
27201;SDS011;14717;46.924;15.474;2023-01-15T06:23:36;17.42;;;6.57;;
27201;SDS011;14717;46.924;15.474;2023-01-15T06:26:03;13.05;;;6.30;;
27201;SDS011;14717;46.924;15.474;2023-01-15T06:28:30;15.02;;;6.25;;
27201;SDS011;14717;46.924;15.474;2023-01-15T06:30:55;14.52;;;6.68;;
27201;SDS011;14717;46.924;15.474;2023-01-15T06:33:20;13.63;;;6.78;;
27201;SDS011;14717;46.924;15.474;2023-01-15T06:35:46;13.18;;;6.50;;
27201;SDS011;14717;46.924;15.474;2023-01-15T06:38:11;13.57;;;6.60;;
27201;SDS011;14717;46.924;15.474;2023-01-15T06:40:37;20.02;;;7.88;;
27201;SDS011;14717;46.924;15.474;2023-01-15T06:43:02;26.33;;;9.15;;
27201;SDS011;14717;46.924;15.474;2023-01-15T06:45:46;19.45;;;7.78;;
27201;SDS011;14717;46.924;15.474;2023-01-15T06:48:30;19.33;;;7.60;;
27201;SDS011;14717;46.924;15.474;2023-01-15T06:50:57;17.63;;;7.50;;
27201;SDS011;14717;46.924;15.474;2023-01-15T06:53:23;17.70;;;7.95;;
27201;SDS011;14717;46.924;15.474;2023-01-15T06:55:49;21.38;;;8.05;;
27201;SDS011;14717;46.924;15.474;2023-01-15T06:58:14;16.48;;;8.00;;
27201;SDS011;14717;46.924;15.474;2023-01-15T07:00:39;16.88;;;7.28;;
27201;SDS011;14717;46.924;15.474;2023-01-15T07:03:08;22.23;;;9.40;;
27201;SDS011;14717;46.924;15.474;2023-01-15T07:05:33;14.63;;;7.20;;
27201;SDS011;14717;46.924;15.474;2023-01-15T07:07:59;16.25;;;8.05;;
27201;SDS011;14717;46.924;15.474;2023-01-15T07:10:24;19.10;;;8.38;;
27201;SDS011;14717;46.924;15.474;2023-01-15T07:12:50;15.00;;;7.68;;
27201;SDS011;14717;46.924;15.474;2023-01-15T07:15:15;16.98;;;7.95;;
27201;SDS011;14717;46.924;15.474;2023-01-15T07:17:40;13.75;;;7.45;;
27201;SDS011;14717;46.924;15.474;2023-01-15T07:20:06;14.00;;;6.45;;
27201;SDS011;14717;46.924;15.474;2023-01-15T07:22:32;13.38;;;6.75;;
27201;SDS011;14717;46.924;15.474;2023-01-15T07:24:57;12.88;;;6.10;;
27201;SDS011;14717;46.924;15.474;2023-01-15T07:27:23;17.00;;;8.20;;
27201;SDS011;14717;46.924;15.474;2023-01-15T07:29:48;19.10;;;11.02;;
27201;SDS011;14717;46.924;15.474;2023-01-15T07:32:16;15.73;;;8.23;;
27201;SDS011;14717;46.924;15.474;2023-01-15T07:34:41;14.73;;;8.25;;
27201;SDS011;14717;46.924;15.474;2023-01-15T07:37:07;13.55;;;7.45;;
27201;SDS011;14717;46.924;15.474;2023-01-15T07:39:39;13.82;;;7.95;;
27201;SDS011;14717;46.924;15.474;2023-01-15T07:42:05;15.80;;;7.40;;
27201;SDS011;14717;46.924;15.474;2023-01-15T07:44:49;16.75;;;7.90;;
27201;SDS011;14717;46.924;15.474;2023-01-15T07:47:33;14.52;;;6.82;;
27201;SDS011;14717;46.924;15.474;2023-01-15T07:50:19;13.95;;;6.70;;
27201;SDS011;14717;46.924;15.474;2023-01-15T07:52:46;11.85;;;5.95;;
27201;SDS011;14717;46.924;15.474;2023-01-15T07:55:12;10.40;;;6.07;;
27201;SDS011;14717;46.924;15.474;2023-01-15T07:57:38;12.65;;;6.25;;
27201;SDS011;14717;46.924;15.474;2023-01-15T08:00:05;12.30;;;6.57;;
27201;SDS011;14717;46.924;15.474;2023-01-15T08:02:33;11.65;;;6.35;;
27201;SDS011;14717;46.924;15.474;2023-01-15T08:04:58;13.48;;;6.45;;
27201;SDS011;14717;46.924;15.474;2023-01-15T08:07:24;12.75;;;6.35;;
27201;SDS011;14717;46.924;15.474;2023-01-15T08:09:49;12.10;;;6.13;;
27201;SDS011;14717;46.924;15.474;2023-01-15T08:12:15;14.07;;;6.82;;
27201;SDS011;14717;46.924;15.474;2023-01-15T08:14:59;14.15;;;6.40;;
27201;SDS011;14717;46.924;15.474;2023-01-15T08:17:41;12.38;;;7.22;;
27201;SDS011;14717;46.924;15.474;2023-01-15T08:20:20;13.13;;;6.25;;
27201;SDS011;14717;46.924;15.474;2023-01-15T08:22:47;10.50;;;5.90;;
27201;SDS011;14717;46.924;15.474;2023-01-15T08:25:19;15.18;;;7.47;;
27201;SDS011;14717;46.924;15.474;2023-01-15T08:27:46;12.32;;;6.20;;
27201;SDS011;14717;46.924;15.474;2023-01-15T08:30:13;10.30;;;5.72;;
27201;SDS011;14717;46.924;15.474;2023-01-15T08:32:41;11.45;;;5.85;;
27201;SDS011;14717;46.924;15.474;2023-01-15T08:35:07;13.27;;;6.45;;
27201;SDS011;14717;46.924;15.474;2023-01-15T08:37:33;10.15;;;5.53;;
27201;SDS011;14717;46.924;15.474;2023-01-15T08:39:58;11.00;;;5.80;;
27201;SDS011;14717;46.924;15.474;2023-01-15T08:42:23;14.85;;;5.78;;
27201;SDS011;14717;46.924;15.474;2023-01-15T08:44:49;12.63;;;6.05;;
27201;SDS011;14717;46.924;15.474;2023-01-15T08:47:15;9.85;;;5.10;;
27201;SDS011;14717;46.924;15.474;2023-01-15T08:52:06;13.25;;;6.20;;
27201;SDS011;14717;46.924;15.474;2023-01-15T08:54:31;14.48;;;5.85;;
27201;SDS011;14717;46.924;15.474;2023-01-15T08:56:58;15.05;;;7.18;;
27201;SDS011;14717;46.924;15.474;2023-01-15T08:59:24;15.10;;;6.90;;
27201;SDS011;14717;46.924;15.474;2023-01-15T09:01:49;11.55;;;6.20;;
27201;SDS011;14717;46.924;15.474;2023-01-15T09:04:15;14.38;;;6.45;;
27201;SDS011;14717;46.924;15.474;2023-01-15T09:06:42;10.98;;;5.18;;
27201;SDS011;14717;46.924;15.474;2023-01-15T09:09:08;16.85;;;6.57;;
27201;SDS011;14717;46.924;15.474;2023-01-15T09:11:34;12.45;;;6.25;;
27201;SDS011;14717;46.924;15.474;2023-01-15T09:14:03;10.88;;;6.13;;
27201;SDS011;14717;46.924;15.474;2023-01-15T09:26:52;12.70;;;6.72;;
27201;SDS011;14717;46.924;15.474;2023-01-15T09:29:18;12.55;;;6.97;;
27201;SDS011;14717;46.924;15.474;2023-01-15T09:31:44;16.95;;;8.15;;
27201;SDS011;14717;46.924;15.474;2023-01-15T09:34:09;14.68;;;6.97;;
27201;SDS011;14717;46.924;15.474;2023-01-15T09:36:35;14.18;;;7.93;;
27201;SDS011;14717;46.924;15.474;2023-01-15T09:39:10;16.48;;;7.75;;
27201;SDS011;14717;46.924;15.474;2023-01-15T09:41:51;12.73;;;7.25;;
27201;SDS011;14717;46.924;15.474;2023-01-15T09:50:17;14.55;;;7.45;;
27201;SDS011;14717;46.924;15.474;2023-01-15T09:55:23;12.27;;;7.20;;
27201;SDS011;14717;46.924;15.474;2023-01-15T09:57:53;17.45;;;7.72;;
27201;SDS011;14717;46.924;15.474;2023-01-15T10:00:21;13.10;;;7.38;;
27201;SDS011;14717;46.924;15.474;2023-01-15T10:02:50;18.00;;;8.85;;
27201;SDS011;14717;46.924;15.474;2023-01-15T10:05:39;15.30;;;7.63;;
27201;SDS011;14717;46.924;15.474;2023-01-15T10:08:11;15.25;;;7.85;;
27201;SDS011;14717;46.924;15.474;2023-01-15T10:11:27;12.43;;;7.20;;
27201;SDS011;14717;46.924;15.474;2023-01-15T10:16:26;13.68;;;6.15;;
27201;SDS011;14717;46.924;15.474;2023-01-15T10:18:54;11.38;;;6.28;;
27201;SDS011;14717;46.924;15.474;2023-01-15T10:25:03;9.88;;;5.25;;
27201;SDS011;14717;46.924;15.474;2023-01-15T10:27:39;15.00;;;6.90;;
27201;SDS011;14717;46.924;15.474;2023-01-15T10:30:14;10.40;;;5.97;;
27201;SDS011;14717;46.924;15.474;2023-01-15T10:32:45;9.63;;;5.30;;
27201;SDS011;14717;46.924;15.474;2023-01-15T10:46:06;11.68;;;5.60;;
27201;SDS011;14717;46.924;15.474;2023-01-15T10:51:18;10.45;;;6.07;;
27201;SDS011;14717;46.924;15.474;2023-01-15T10:59:01;11.77;;;6.57;;
27201;SDS011;14717;46.924;15.474;2023-01-15T11:01:54;14.00;;;6.50;;
27201;SDS011;14717;46.924;15.474;2023-01-15T11:04:23;13.80;;;6.68;;
27201;SDS011;14717;46.924;15.474;2023-01-15T11:06:50;14.00;;;6.93;;
27201;SDS011;14717;46.924;15.474;2023-01-15T11:09:18;11.82;;;6.15;;
27201;SDS011;14717;46.924;15.474;2023-01-15T11:17:45;13.68;;;5.80;;
27201;SDS011;14717;46.924;15.474;2023-01-15T11:20:33;16.20;;;6.57;;
27201;SDS011;14717;46.924;15.474;2023-01-15T11:23:17;14.27;;;6.95;;
27201;SDS011;14717;46.924;15.474;2023-01-15T11:25:51;10.52;;;5.75;;
27201;SDS011;14717;46.924;15.474;2023-01-15T11:28:30;34.45;;;11.50;;
27201;SDS011;14717;46.924;15.474;2023-01-15T11:30:59;14.65;;;7.88;;
27201;SDS011;14717;46.924;15.474;2023-01-15T11:33:26;10.40;;;5.90;;
27201;SDS011;14717;46.924;15.474;2023-01-15T11:35:53;9.93;;;5.53;;
27201;SDS011;14717;46.924;15.474;2023-01-15T11:38:24;10.48;;;5.68;;
27201;SDS011;14717;46.924;15.474;2023-01-15T11:40:55;10.65;;;5.10;;
27201;SDS011;14717;46.924;15.474;2023-01-15T11:43:24;8.98;;;4.93;;
27201;SDS011;14717;46.924;15.474;2023-01-15T11:46:22;9.27;;;5.18;;
27201;SDS011;14717;46.924;15.474;2023-01-15T11:49:09;9.70;;;5.57;;
27201;SDS011;14717;46.924;15.474;2023-01-15T11:51:53;11.63;;;6.22;;
27201;SDS011;14717;46.924;15.474;2023-01-15T11:54:22;9.30;;;5.03;;
27201;SDS011;14717;46.924;15.474;2023-01-15T11:56:49;11.30;;;5.10;;
27201;SDS011;14717;46.924;15.474;2023-01-15T11:59:16;8.98;;;5.40;;
27201;SDS011;14717;46.924;15.474;2023-01-15T12:07:20;8.32;;;4.80;;
27201;SDS011;14717;46.924;15.474;2023-01-15T12:12:41;8.40;;;4.95;;
27201;SDS011;14717;46.924;15.474;2023-01-15T12:15:21;9.50;;;4.85;;
27201;SDS011;14717;46.924;15.474;2023-01-15T12:20:48;9.07;;;4.40;;
27201;SDS011;14717;46.924;15.474;2023-01-15T12:25:55;12.18;;;5.18;;
27201;SDS011;14717;46.924;15.474;2023-01-15T12:28:44;12.18;;;5.13;;
27201;SDS011;14717;46.924;15.474;2023-01-15T12:42:24;12.77;;;6.63;;
27201;SDS011;14717;46.924;15.474;2023-01-15T12:45:11;14.85;;;8.80;;
27201;SDS011;14717;46.924;15.474;2023-01-15T12:47:53;11.10;;;6.45;;
27201;SDS011;14717;46.924;15.474;2023-01-15T13:01:17;34.25;;;13.50;;
27201;SDS011;14717;46.924;15.474;2023-01-15T13:06:41;14.50;;;6.68;;
27201;SDS011;14717;46.924;15.474;2023-01-15T13:09:21;15.68;;;8.05;;
27201;SDS011;14717;46.924;15.474;2023-01-15T13:12:02;13.75;;;7.00;;
27201;SDS011;14717;46.924;15.474;2023-01-15T13:14:31;17.02;;;8.90;;
27201;SDS011;14717;46.924;15.474;2023-01-15T13:16:59;10.13;;;5.43;;
27201;SDS011;14717;46.924;15.474;2023-01-15T13:20:17;13.75;;;7.20;;
27201;SDS011;14717;46.924;15.474;2023-01-15T13:22:36;12.80;;;6.20;;
27201;SDS011;14717;46.924;15.474;2023-01-15T13:25:32;11.27;;;5.80;;
27201;SDS011;14717;46.924;15.474;2023-01-15T13:33:43;8.98;;;5.50;;
27201;SDS011;14717;46.924;15.474;2023-01-15T13:36:21;11.45;;;5.88;;
27201;SDS011;14717;46.924;15.474;2023-01-15T13:38:52;12.27;;;5.68;;
27201;SDS011;14717;46.924;15.474;2023-01-15T13:41:24;10.43;;;5.75;;
27201;SDS011;14717;46.924;15.474;2023-01-15T13:44:17;12.20;;;5.97;;
27201;SDS011;14717;46.924;15.474;2023-01-15T13:46:46;12.80;;;5.53;;
27201;SDS011;14717;46.924;15.474;2023-01-15T13:49:30;9.52;;;5.60;;
27201;SDS011;14717;46.924;15.474;2023-01-15T13:51:59;11.02;;;5.30;;
27201;SDS011;14717;46.924;15.474;2023-01-15T13:54:28;10.13;;;5.70;;
27201;SDS011;14717;46.924;15.474;2023-01-15T13:57:06;10.90;;;5.90;;
27201;SDS011;14717;46.924;15.474;2023-01-15T13:59:47;11.25;;;5.90;;
27201;SDS011;14717;46.924;15.474;2023-01-15T14:02:25;11.50;;;6.07;;
27201;SDS011;14717;46.924;15.474;2023-01-15T14:04:50;13.38;;;6.63;;
27201;SDS011;14717;46.924;15.474;2023-01-15T14:07:17;13.95;;;6.60;;
27201;SDS011;14717;46.924;15.474;2023-01-15T14:09:54;12.70;;;6.90;;
27201;SDS011;14717;46.924;15.474;2023-01-15T14:13:18;11.77;;;6.90;;
27201;SDS011;14717;46.924;15.474;2023-01-15T14:15:29;15.27;;;7.30;;
27201;SDS011;14717;46.924;15.474;2023-01-15T14:18:06;17.77;;;7.88;;
27201;SDS011;14717;46.924;15.474;2023-01-15T14:34:32;15.82;;;9.10;;
27201;SDS011;14717;46.924;15.474;2023-01-15T14:39:47;51.38;;;21.52;;
27201;SDS011;14717;46.924;15.474;2023-01-15T14:45:07;16.10;;;6.22;;
27201;SDS011;14717;46.924;15.474;2023-01-15T14:47:42;11.95;;;6.13;;
27201;SDS011;14717;46.924;15.474;2023-01-15T14:55:40;12.75;;;6.88;;
27201;SDS011;14717;46.924;15.474;2023-01-15T15:07:11;12.85;;;6.15;;
27201;SDS011;14717;46.924;15.474;2023-01-15T15:09:57;14.50;;;6.65;;
27201;SDS011;14717;46.924;15.474;2023-01-15T15:12:34;13.95;;;7.05;;
27201;SDS011;14717;46.924;15.474;2023-01-15T15:15:12;14.98;;;7.28;;
27201;SDS011;14717;46.924;15.474;2023-01-15T15:24:10;19.98;;;9.50;;
27201;SDS011;14717;46.924;15.474;2023-01-15T15:26:44;19.92;;;9.25;;
27201;SDS011;14717;46.924;15.474;2023-01-15T15:29:11;14.85;;;8.70;;
27201;SDS011;14717;46.924;15.474;2023-01-15T15:31:38;18.80;;;9.10;;
27201;SDS011;14717;46.924;15.474;2023-01-15T15:34:10;17.70;;;9.30;;
27201;SDS011;14717;46.924;15.474;2023-01-15T15:36:41;34.17;;;12.75;;
27201;SDS011;14717;46.924;15.474;2023-01-15T15:39:18;24.00;;;10.80;;
27201;SDS011;14717;46.924;15.474;2023-01-15T15:41:48;21.15;;;11.23;;
27201;SDS011;14717;46.924;15.474;2023-01-15T15:47:22;31.83;;;13.75;;
27201;SDS011;14717;46.924;15.474;2023-01-15T15:50:17;33.60;;;15.43;;
27201;SDS011;14717;46.924;15.474;2023-01-15T15:52:50;30.10;;;14.27;;
27201;SDS011;14717;46.924;15.474;2023-01-15T15:55:16;29.98;;;13.02;;
27201;SDS011;14717;46.924;15.474;2023-01-15T15:57:44;32.22;;;14.23;;
27201;SDS011;14717;46.924;15.474;2023-01-15T16:00:17;27.85;;;13.32;;
27201;SDS011;14717;46.924;15.474;2023-01-15T16:02:47;27.98;;;13.55;;
27201;SDS011;14717;46.924;15.474;2023-01-15T16:05:25;36.13;;;16.40;;
27201;SDS011;14717;46.924;15.474;2023-01-15T16:07:54;28.80;;;13.65;;
27201;SDS011;14717;46.924;15.474;2023-01-15T16:12:52;24.67;;;11.55;;
27201;SDS011;14717;46.924;15.474;2023-01-15T16:15:22;27.23;;;11.85;;
27201;SDS011;14717;46.924;15.474;2023-01-15T16:17:53;25.25;;;12.15;;
27201;SDS011;14717;46.924;15.474;2023-01-15T16:20:20;58.35;;;19.90;;
27201;SDS011;14717;46.924;15.474;2023-01-15T16:23:02;61.08;;;21.67;;
27201;SDS011;14717;46.924;15.474;2023-01-15T16:25:32;63.13;;;22.38;;
27201;SDS011;14717;46.924;15.474;2023-01-15T16:28:02;57.65;;;20.70;;
27201;SDS011;14717;46.924;15.474;2023-01-15T16:30:28;55.88;;;19.30;;
27201;SDS011;14717;46.924;15.474;2023-01-15T16:32:59;39.45;;;16.20;;
27201;SDS011;14717;46.924;15.474;2023-01-15T16:35:29;43.65;;;15.63;;
27201;SDS011;14717;46.924;15.474;2023-01-15T16:37:58;33.53;;;14.70;;
27201;SDS011;14717;46.924;15.474;2023-01-15T16:40:35;29.65;;;13.10;;
27201;SDS011;14717;46.924;15.474;2023-01-15T16:43:07;47.15;;;17.77;;
27201;SDS011;14717;46.924;15.474;2023-01-15T16:50:58;22.58;;;10.57;;
27201;SDS011;14717;46.924;15.474;2023-01-15T16:54:00;19.85;;;9.30;;
27201;SDS011;14717;46.924;15.474;2023-01-15T16:59:03;19.35;;;9.15;;
27201;SDS011;14717;46.924;15.474;2023-01-15T17:01:39;22.50;;;9.20;;
27201;SDS011;14717;46.924;15.474;2023-01-15T17:07:15;16.58;;;9.45;;
27201;SDS011;14717;46.924;15.474;2023-01-15T17:09:57;17.08;;;8.38;;
27201;SDS011;14717;46.924;15.474;2023-01-15T17:12:28;19.77;;;9.75;;
27201;SDS011;14717;46.924;15.474;2023-01-15T17:15:39;17.95;;;8.88;;
27201;SDS011;14717;46.924;15.474;2023-01-15T17:17:48;43.17;;;19.35;;
27201;SDS011;14717;46.924;15.474;2023-01-15T17:20:15;33.15;;;15.85;;
27201;SDS011;14717;46.924;15.474;2023-01-15T17:22:44;29.52;;;14.90;;
27201;SDS011;14717;46.924;15.474;2023-01-15T17:25:23;23.25;;;11.63;;
27201;SDS011;14717;46.924;15.474;2023-01-15T17:27:55;21.90;;;11.52;;
27201;SDS011;14717;46.924;15.474;2023-01-15T17:30:21;26.85;;;11.23;;
27201;SDS011;14717;46.924;15.474;2023-01-15T17:32:50;26.63;;;11.38;;